sensor_id;sensor_type;location;lat;lon;timestamp;P1;durP1;ratioP1;P2;durP2;ratioP2
64061;SDS011;50308;47.438;-1.528;2022-08-19T00:00:18;7.50;;;3.50;;
64061;SDS011;50308;47.438;-1.528;2022-08-19T00:02:45;6.88;;;3.53;;
64061;SDS011;50308;47.438;-1.528;2022-08-19T00:05:11;6.78;;;3.25;;
64061;SDS011;50308;47.438;-1.528;2022-08-19T00:07:39;10.52;;;4.07;;
64061;SDS011;50308;47.438;-1.528;2022-08-19T00:10:08;5.65;;;3.35;;
64061;SDS011;50308;47.438;-1.528;2022-08-19T00:12:36;6.30;;;3.65;;
64061;SDS011;50308;47.438;-1.528;2022-08-19T00:15:04;6.90;;;3.58;;
64061;SDS011;50308;47.438;-1.528;2022-08-19T00:17:31;6.50;;;4.13;;
64061;SDS011;50308;47.438;-1.528;2022-08-19T00:19:57;6.68;;;3.33;;
64061;SDS011;50308;47.438;-1.528;2022-08-19T00:22:22;8.50;;;3.97;;
64061;SDS011;50308;47.438;-1.528;2022-08-19T00:24:48;4.80;;;3.25;;
64061;SDS011;50308;47.438;-1.528;2022-08-19T00:27:14;8.30;;;4.32;;
64061;SDS011;50308;47.438;-1.528;2022-08-19T00:29:40;7.50;;;3.53;;
64061;SDS011;50308;47.438;-1.528;2022-08-19T00:32:06;6.97;;;3.40;;
64061;SDS011;50308;47.438;-1.528;2022-08-19T00:34:31;6.90;;;3.22;;
64061;SDS011;50308;47.438;-1.528;2022-08-19T00:36:58;11.23;;;3.55;;
64061;SDS011;50308;47.438;-1.528;2022-08-19T00:39:24;6.63;;;3.30;;
64061;SDS011;50308;47.438;-1.528;2022-08-19T00:41:50;6.15;;;3.00;;
64061;SDS011;50308;47.438;-1.528;2022-08-19T00:44:22;6.47;;;2.72;;
64061;SDS011;50308;47.438;-1.528;2022-08-19T00:46:51;5.10;;;3.00;;
64061;SDS011;50308;47.438;-1.528;2022-08-19T00:52:31;5.07;;;2.47;;
64061;SDS011;50308;47.438;-1.528;2022-08-19T00:54:59;5.35;;;2.70;;
64061;SDS011;50308;47.438;-1.528;2022-08-19T00:57:30;3.60;;;2.33;;
64061;SDS011;50308;47.438;-1.528;2022-08-19T01:00:00;6.60;;;3.10;;
64061;SDS011;50308;47.438;-1.528;2022-08-19T01:02:30;3.28;;;2.03;;
64061;SDS011;50308;47.438;-1.528;2022-08-19T01:04:57;5.20;;;2.33;;
64061;SDS011;50308;47.438;-1.528;2022-08-19T01:07:26;4.97;;;3.05;;
64061;SDS011;50308;47.438;-1.528;2022-08-19T01:09:52;4.03;;;2.53;;
64061;SDS011;50308;47.438;-1.528;2022-08-19T01:12:18;4.13;;;2.22;;
64061;SDS011;50308;47.438;-1.528;2022-08-19T01:14:44;4.05;;;2.55;;
64061;SDS011;50308;47.438;-1.528;2022-08-19T01:17:11;3.72;;;2.20;;
64061;SDS011;50308;47.438;-1.528;2022-08-19T01:19:40;3.60;;;1.90;;
64061;SDS011;50308;47.438;-1.528;2022-08-19T01:27:14;4.72;;;2.17;;
64061;SDS011;50308;47.438;-1.528;2022-08-19T01:29:40;5.13;;;2.40;;
64061;SDS011;50308;47.438;-1.528;2022-08-19T01:32:07;4.28;;;2.33;;
64061;SDS011;50308;47.438;-1.528;2022-08-19T01:34:37;3.72;;;2.03;;
64061;SDS011;50308;47.438;-1.528;2022-08-19T01:37:08;5.45;;;2.25;;
64061;SDS011;50308;47.438;-1.528;2022-08-19T01:39:36;3.40;;;1.73;;
64061;SDS011;50308;47.438;-1.528;2022-08-19T01:42:06;4.32;;;1.40;;
64061;SDS011;50308;47.438;-1.528;2022-08-19T01:44:36;4.15;;;1.77;;
64061;SDS011;50308;47.438;-1.528;2022-08-19T01:47:02;3.13;;;1.75;;
64061;SDS011;50308;47.438;-1.528;2022-08-19T01:49:28;3.50;;;1.60;;
64061;SDS011;50308;47.438;-1.528;2022-08-19T01:51:55;3.72;;;1.63;;
64061;SDS011;50308;47.438;-1.528;2022-08-19T01:54:22;3.70;;;1.83;;
64061;SDS011;50308;47.438;-1.528;2022-08-19T01:56:49;2.70;;;1.50;;
64061;SDS011;50308;47.438;-1.528;2022-08-19T01:59:19;2.70;;;1.58;;
64061;SDS011;50308;47.438;-1.528;2022-08-19T02:01:46;4.95;;;1.48;;
64061;SDS011;50308;47.438;-1.528;2022-08-19T02:04:12;4.95;;;1.70;;
64061;SDS011;50308;47.438;-1.528;2022-08-19T02:06:39;4.85;;;1.35;;
64061;SDS011;50308;47.438;-1.528;2022-08-19T02:09:06;5.38;;;1.83;;
64061;SDS011;50308;47.438;-1.528;2022-08-19T02:11:33;3.38;;;1.50;;
64061;SDS011;50308;47.438;-1.528;2022-08-19T02:14:01;3.35;;;1.30;;
64061;SDS011;50308;47.438;-1.528;2022-08-19T02:16:28;8.32;;;1.63;;
64061;SDS011;50308;47.438;-1.528;2022-08-19T02:18:55;2.47;;;1.40;;
64061;SDS011;50308;47.438;-1.528;2022-08-19T02:21:22;2.15;;;1.42;;
64061;SDS011;50308;47.438;-1.528;2022-08-19T02:23:49;2.78;;;1.67;;
64061;SDS011;50308;47.438;-1.528;2022-08-19T02:26:15;4.03;;;1.58;;
64061;SDS011;50308;47.438;-1.528;2022-08-19T02:28:41;3.13;;;1.58;;
64061;SDS011;50308;47.438;-1.528;2022-08-19T02:31:11;2.72;;;1.30;;
64061;SDS011;50308;47.438;-1.528;2022-08-19T02:33:42;4.22;;;1.40;;
64061;SDS011;50308;47.438;-1.528;2022-08-19T02:36:09;2.25;;;1.35;;
64061;SDS011;50308;47.438;-1.528;2022-08-19T02:38:38;4.65;;;1.40;;
64061;SDS011;50308;47.438;-1.528;2022-08-19T02:41:05;1.83;;;1.27;;
64061;SDS011;50308;47.438;-1.528;2022-08-19T02:43:40;3.40;;;1.85;;
64061;SDS011;50308;47.438;-1.528;2022-08-19T02:46:19;3.55;;;1.60;;
64061;SDS011;50308;47.438;-1.528;2022-08-19T02:48:56;2.20;;;1.15;;
64061;SDS011;50308;47.438;-1.528;2022-08-19T02:51:26;4.05;;;1.65;;
64061;SDS011;50308;47.438;-1.528;2022-08-19T02:53:55;3.03;;;1.40;;
64061;SDS011;50308;47.438;-1.528;2022-08-19T02:56:21;2.45;;;1.38;;
64061;SDS011;50308;47.438;-1.528;2022-08-19T02:58:49;3.08;;;1.30;;
64061;SDS011;50308;47.438;-1.528;2022-08-19T03:01:22;3.42;;;1.63;;
64061;SDS011;50308;47.438;-1.528;2022-08-19T03:03:49;2.25;;;1.27;;
64061;SDS011;50308;47.438;-1.528;2022-08-19T03:06:16;3.67;;;1.48;;
64061;SDS011;50308;47.438;-1.528;2022-08-19T03:08:42;3.90;;;1.55;;
64061;SDS011;50308;47.438;-1.528;2022-08-19T03:11:13;4.32;;;1.58;;
64061;SDS011;50308;47.438;-1.528;2022-08-19T03:13:40;6.45;;;1.60;;
64061;SDS011;50308;47.438;-1.528;2022-08-19T03:16:08;4.25;;;1.20;;
64061;SDS011;50308;47.438;-1.528;2022-08-19T03:18:34;2.38;;;1.30;;
64061;SDS011;50308;47.438;-1.528;2022-08-19T03:20:59;3.65;;;1.58;;
64061;SDS011;50308;47.438;-1.528;2022-08-19T03:23:25;3.65;;;1.15;;
64061;SDS011;50308;47.438;-1.528;2022-08-19T03:25:52;2.20;;;1.13;;
64061;SDS011;50308;47.438;-1.528;2022-08-19T03:28:18;4.65;;;1.65;;
64061;SDS011;50308;47.438;-1.528;2022-08-19T03:31:04;2.70;;;1.20;;
64061;SDS011;50308;47.438;-1.528;2022-08-19T03:38:43;1.90;;;0.90;;
64061;SDS011;50308;47.438;-1.528;2022-08-19T03:41:12;4.85;;;1.38;;
64061;SDS011;50308;47.438;-1.528;2022-08-19T03:43:41;5.88;;;1.75;;
64061;SDS011;50308;47.438;-1.528;2022-08-19T03:46:09;3.28;;;0.73;;
64061;SDS011;50308;47.438;-1.528;2022-08-19T03:48:36;2.58;;;1.10;;
64061;SDS011;50308;47.438;-1.528;2022-08-19T03:51:03;2.58;;;1.10;;
64061;SDS011;50308;47.438;-1.528;2022-08-19T03:53:30;2.58;;;1.00;;
64061;SDS011;50308;47.438;-1.528;2022-08-19T03:55:58;3.38;;;1.20;;
64061;SDS011;50308;47.438;-1.528;2022-08-19T03:58:27;2.25;;;0.90;;
64061;SDS011;50308;47.438;-1.528;2022-08-19T04:00:55;4.55;;;1.42;;
64061;SDS011;50308;47.438;-1.528;2022-08-19T04:03:21;2.42;;;0.80;;
64061;SDS011;50308;47.438;-1.528;2022-08-19T04:05:47;1.67;;;0.88;;
64061;SDS011;50308;47.438;-1.528;2022-08-19T04:08:14;1.85;;;0.82;;
64061;SDS011;50308;47.438;-1.528;2022-08-19T04:10:43;2.15;;;1.20;;
64061;SDS011;50308;47.438;-1.528;2022-08-19T04:13:08;1.85;;;1.05;;
64061;SDS011;50308;47.438;-1.528;2022-08-19T04:15:38;2.45;;;1.10;;
64061;SDS011;50308;47.438;-1.528;2022-08-19T04:18:06;3.05;;;1.13;;
64061;SDS011;50308;47.438;-1.528;2022-08-19T04:20:41;1.92;;;0.82;;
64061;SDS011;50308;47.438;-1.528;2022-08-19T04:23:11;2.55;;;1.13;;
64061;SDS011;50308;47.438;-1.528;2022-08-19T04:25:39;3.50;;;0.90;;
64061;SDS011;50308;47.438;-1.528;2022-08-19T04:28:06;1.92;;;0.95;;
64061;SDS011;50308;47.438;-1.528;2022-08-19T04:30:38;2.55;;;0.90;;
64061;SDS011;50308;47.438;-1.528;2022-08-19T04:33:05;4.47;;;1.40;;
64061;SDS011;50308;47.438;-1.528;2022-08-19T04:35:35;2.25;;;0.95;;
64061;SDS011;50308;47.438;-1.528;2022-08-19T04:38:03;2.97;;;0.90;;
64061;SDS011;50308;47.438;-1.528;2022-08-19T04:40:29;1.95;;;0.80;;
64061;SDS011;50308;47.438;-1.528;2022-08-19T04:43:14;1.58;;;0.85;;
64061;SDS011;50308;47.438;-1.528;2022-08-19T04:45:40;3.58;;;0.70;;
64061;SDS011;50308;47.438;-1.528;2022-08-19T04:48:10;1.43;;;0.80;;
64061;SDS011;50308;47.438;-1.528;2022-08-19T04:50:39;1.80;;;1.00;;
64061;SDS011;50308;47.438;-1.528;2022-08-19T04:53:06;1.40;;;0.60;;
64061;SDS011;50308;47.438;-1.528;2022-08-19T04:55:32;2.13;;;0.90;;
64061;SDS011;50308;47.438;-1.528;2022-08-19T04:58:00;2.42;;;1.52;;
64061;SDS011;50308;47.438;-1.528;2022-08-19T05:00:27;2.40;;;1.10;;
64061;SDS011;50308;47.438;-1.528;2022-08-19T05:02:53;1.88;;;0.88;;
64061;SDS011;50308;47.438;-1.528;2022-08-19T05:05:18;2.35;;;1.08;;
64061;SDS011;50308;47.438;-1.528;2022-08-19T05:07:44;4.15;;;1.08;;
64061;SDS011;50308;47.438;-1.528;2022-08-19T05:10:10;1.77;;;0.80;;
64061;SDS011;50308;47.438;-1.528;2022-08-19T05:12:36;1.85;;;0.80;;
64061;SDS011;50308;47.438;-1.528;2022-08-19T05:15:03;2.33;;;1.10;;
64061;SDS011;50308;47.438;-1.528;2022-08-19T05:17:30;1.55;;;0.85;;
64061;SDS011;50308;47.438;-1.528;2022-08-19T05:19:56;2.45;;;0.80;;
64061;SDS011;50308;47.438;-1.528;2022-08-19T05:22:43;1.75;;;0.70;;
64061;SDS011;50308;47.438;-1.528;2022-08-19T05:25:11;2.05;;;1.38;;
64061;SDS011;50308;47.438;-1.528;2022-08-19T05:27:40;3.27;;;0.93;;
64061;SDS011;50308;47.438;-1.528;2022-08-19T05:30:06;1.60;;;0.82;;
64061;SDS011;50308;47.438;-1.528;2022-08-19T05:32:33;2.47;;;1.00;;
64061;SDS011;50308;47.438;-1.528;2022-08-19T05:34:59;1.40;;;0.90;;
64061;SDS011;50308;47.438;-1.528;2022-08-19T05:37:25;2.55;;;0.85;;
64061;SDS011;50308;47.438;-1.528;2022-08-19T05:39:52;2.00;;;1.08;;
64061;SDS011;50308;47.438;-1.528;2022-08-19T05:42:19;3.47;;;0.88;;
64061;SDS011;50308;47.438;-1.528;2022-08-19T05:44:47;4.13;;;1.15;;
64061;SDS011;50308;47.438;-1.528;2022-08-19T05:47:14;2.88;;;1.17;;
64061;SDS011;50308;47.438;-1.528;2022-08-19T05:49:41;2.92;;;1.00;;
64061;SDS011;50308;47.438;-1.528;2022-08-19T05:52:08;3.30;;;1.05;;
64061;SDS011;50308;47.438;-1.528;2022-08-19T05:54:39;2.63;;;1.05;;
64061;SDS011;50308;47.438;-1.528;2022-08-19T05:57:06;2.60;;;1.10;;
64061;SDS011;50308;47.438;-1.528;2022-08-19T05:59:32;3.85;;;1.30;;
64061;SDS011;50308;47.438;-1.528;2022-08-19T06:02:00;2.60;;;1.13;;
64061;SDS011;50308;47.438;-1.528;2022-08-19T06:04:26;2.10;;;1.05;;
64061;SDS011;50308;47.438;-1.528;2022-08-19T06:06:53;3.50;;;1.17;;
64061;SDS011;50308;47.438;-1.528;2022-08-19T06:09:19;3.50;;;1.00;;
64061;SDS011;50308;47.438;-1.528;2022-08-19T06:11:47;2.88;;;1.20;;
64061;SDS011;50308;47.438;-1.528;2022-08-19T06:14:19;2.50;;;1.17;;
64061;SDS011;50308;47.438;-1.528;2022-08-19T06:16:47;3.38;;;1.40;;
64061;SDS011;50308;47.438;-1.528;2022-08-19T06:19:16;8.30;;;2.17;;
64061;SDS011;50308;47.438;-1.528;2022-08-19T06:21:44;4.40;;;1.65;;
64061;SDS011;50308;47.438;-1.528;2022-08-19T06:24:13;4.43;;;1.70;;
64061;SDS011;50308;47.438;-1.528;2022-08-19T06:26:42;5.65;;;1.98;;
64061;SDS011;50308;47.438;-1.528;2022-08-19T06:29:13;4.65;;;2.03;;
64061;SDS011;50308;47.438;-1.528;2022-08-19T06:31:45;5.20;;;2.20;;
64061;SDS011;50308;47.438;-1.528;2022-08-19T06:34:16;4.07;;;2.25;;
64061;SDS011;50308;47.438;-1.528;2022-08-19T06:36:45;6.00;;;2.28;;
64061;SDS011;50308;47.438;-1.528;2022-08-19T06:39:14;6.03;;;2.45;;
64061;SDS011;50308;47.438;-1.528;2022-08-19T06:41:44;4.60;;;2.28;;
64061;SDS011;50308;47.438;-1.528;2022-08-19T06:44:11;5.43;;;2.70;;
64061;SDS011;50308;47.438;-1.528;2022-08-19T06:46:38;5.65;;;2.95;;
64061;SDS011;50308;47.438;-1.528;2022-08-19T06:49:05;9.55;;;3.70;;
64061;SDS011;50308;47.438;-1.528;2022-08-19T06:51:34;5.60;;;2.65;;
64061;SDS011;50308;47.438;-1.528;2022-08-19T06:54:00;7.35;;;2.97;;
64061;SDS011;50308;47.438;-1.528;2022-08-19T06:56:27;6.20;;;3.28;;
64061;SDS011;50308;47.438;-1.528;2022-08-19T06:59:00;5.78;;;2.75;;
64061;SDS011;50308;47.438;-1.528;2022-08-19T07:03:59;6.95;;;3.55;;
64061;SDS011;50308;47.438;-1.528;2022-08-19T07:06:26;6.85;;;3.00;;
64061;SDS011;50308;47.438;-1.528;2022-08-19T07:08:52;6.82;;;2.88;;
64061;SDS011;50308;47.438;-1.528;2022-08-19T07:11:18;6.05;;;3.40;;
64061;SDS011;50308;47.438;-1.528;2022-08-19T07:13:44;6.75;;;3.00;;
64061;SDS011;50308;47.438;-1.528;2022-08-19T07:16:14;8.40;;;2.85;;
64061;SDS011;50308;47.438;-1.528;2022-08-19T07:18:42;8.27;;;3.78;;
64061;SDS011;50308;47.438;-1.528;2022-08-19T07:21:14;8.70;;;3.88;;
64061;SDS011;50308;47.438;-1.528;2022-08-19T07:23:44;8.13;;;3.47;;
64061;SDS011;50308;47.438;-1.528;2022-08-19T07:26:12;5.60;;;3.22;;
64061;SDS011;50308;47.438;-1.528;2022-08-19T07:28:41;8.52;;;3.30;;
64061;SDS011;50308;47.438;-1.528;2022-08-19T07:31:09;6.78;;;2.60;;
64061;SDS011;50308;47.438;-1.528;2022-08-19T07:33:37;5.97;;;2.90;;
64061;SDS011;50308;47.438;-1.528;2022-08-19T07:36:05;9.05;;;3.00;;
64061;SDS011;50308;47.438;-1.528;2022-08-19T07:38:32;10.10;;;3.13;;
64061;SDS011;50308;47.438;-1.528;2022-08-19T07:40:59;6.10;;;2.63;;
64061;SDS011;50308;47.438;-1.528;2022-08-19T07:43:26;6.75;;;2.72;;
64061;SDS011;50308;47.438;-1.528;2022-08-19T07:45:53;8.40;;;3.38;;
64061;SDS011;50308;47.438;-1.528;2022-08-19T07:48:25;6.45;;;3.17;;
64061;SDS011;50308;47.438;-1.528;2022-08-19T07:50:56;6.88;;;2.97;;
64061;SDS011;50308;47.438;-1.528;2022-08-19T07:53:24;8.15;;;3.38;;
64061;SDS011;50308;47.438;-1.528;2022-08-19T07:55:50;9.40;;;3.90;;
64061;SDS011;50308;47.438;-1.528;2022-08-19T07:58:18;12.50;;;5.03;;
64061;SDS011;50308;47.438;-1.528;2022-08-19T08:00:46;11.52;;;4.28;;
64061;SDS011;50308;47.438;-1.528;2022-08-19T08:03:14;9.15;;;5.05;;
64061;SDS011;50308;47.438;-1.528;2022-08-19T08:05:42;9.82;;;4.55;;
64061;SDS011;50308;47.438;-1.528;2022-08-19T08:08:27;10.77;;;4.40;;
64061;SDS011;50308;47.438;-1.528;2022-08-19T08:11:12;11.43;;;4.32;;
64061;SDS011;50308;47.438;-1.528;2022-08-19T08:13:39;10.27;;;5.00;;
64061;SDS011;50308;47.438;-1.528;2022-08-19T08:16:06;8.50;;;4.30;;
64061;SDS011;50308;47.438;-1.528;2022-08-19T08:18:32;10.88;;;5.22;;
64061;SDS011;50308;47.438;-1.528;2022-08-19T08:20:59;8.35;;;3.78;;
64061;SDS011;50308;47.438;-1.528;2022-08-19T08:23:25;10.15;;;5.10;;
64061;SDS011;50308;47.438;-1.528;2022-08-19T08:25:52;8.75;;;4.30;;
64061;SDS011;50308;47.438;-1.528;2022-08-19T08:28:19;14.38;;;4.60;;
64061;SDS011;50308;47.438;-1.528;2022-08-19T08:30:47;8.95;;;4.00;;
64061;SDS011;50308;47.438;-1.528;2022-08-19T08:33:17;8.00;;;4.18;;
64061;SDS011;50308;47.438;-1.528;2022-08-19T08:35:44;8.50;;;4.05;;
64061;SDS011;50308;47.438;-1.528;2022-08-19T08:38:10;12.40;;;4.03;;
64061;SDS011;50308;47.438;-1.528;2022-08-19T08:43:35;8.07;;;3.15;;
64061;SDS011;50308;47.438;-1.528;2022-08-19T08:46:12;7.45;;;3.70;;
64061;SDS011;50308;47.438;-1.528;2022-08-19T08:51:25;7.80;;;3.75;;
64061;SDS011;50308;47.438;-1.528;2022-08-19T08:56:29;5.88;;;3.25;;
64061;SDS011;50308;47.438;-1.528;2022-08-19T08:58:59;9.27;;;3.25;;
64061;SDS011;50308;47.438;-1.528;2022-08-19T09:02:00;7.22;;;3.72;;
64061;SDS011;50308;47.438;-1.528;2022-08-19T09:04:31;6.40;;;3.72;;
64061;SDS011;50308;47.438;-1.528;2022-08-19T09:07:17;11.68;;;3.90;;
64061;SDS011;50308;47.438;-1.528;2022-08-19T09:10:07;7.85;;;3.80;;
64061;SDS011;50308;47.438;-1.528;2022-08-19T09:15:28;6.05;;;3.60;;
64061;SDS011;50308;47.438;-1.528;2022-08-19T09:18:04;11.25;;;4.07;;
64061;SDS011;50308;47.438;-1.528;2022-08-19T09:20:32;7.40;;;3.47;;
64061;SDS011;50308;47.438;-1.528;2022-08-19T09:22:59;8.57;;;3.92;;
64061;SDS011;50308;47.438;-1.528;2022-08-19T09:25:26;6.50;;;3.40;;
64061;SDS011;50308;47.438;-1.528;2022-08-19T09:27:56;9.90;;;4.68;;
64061;SDS011;50308;47.438;-1.528;2022-08-19T09:30:28;8.15;;;4.38;;
64061;SDS011;50308;47.438;-1.528;2022-08-19T09:32:57;7.60;;;5.43;;
64061;SDS011;50308;47.438;-1.528;2022-08-19T09:35:26;6.03;;;3.50;;
64061;SDS011;50308;47.438;-1.528;2022-08-19T09:37:56;7.05;;;3.58;;
64061;SDS011;50308;47.438;-1.528;2022-08-19T09:40:24;7.45;;;4.90;;
64061;SDS011;50308;47.438;-1.528;2022-08-19T09:42:55;7.30;;;4.63;;
64061;SDS011;50308;47.438;-1.528;2022-08-19T09:45:23;6.80;;;4.55;;
64061;SDS011;50308;47.438;-1.528;2022-08-19T09:47:51;8.00;;;4.22;;
64061;SDS011;50308;47.438;-1.528;2022-08-19T09:50:19;9.75;;;4.88;;
64061;SDS011;50308;47.438;-1.528;2022-08-19T09:52:49;7.20;;;4.83;;
64061;SDS011;50308;47.438;-1.528;2022-08-19T09:55:20;9.60;;;5.18;;
64061;SDS011;50308;47.438;-1.528;2022-08-19T09:57:48;7.63;;;4.50;;
64061;SDS011;50308;47.438;-1.528;2022-08-19T10:00:16;6.18;;;4.72;;
64061;SDS011;50308;47.438;-1.528;2022-08-19T10:02:43;5.68;;;4.00;;
64061;SDS011;50308;47.438;-1.528;2022-08-19T10:05:11;6.28;;;3.78;;
64061;SDS011;50308;47.438;-1.528;2022-08-19T10:07:57;7.63;;;4.15;;
64061;SDS011;50308;47.438;-1.528;2022-08-19T10:10:26;5.57;;;3.95;;
64061;SDS011;50308;47.438;-1.528;2022-08-19T10:12:52;7.22;;;3.88;;
64061;SDS011;50308;47.438;-1.528;2022-08-19T10:15:19;8.38;;;4.22;;
64061;SDS011;50308;47.438;-1.528;2022-08-19T10:17:46;8.30;;;4.65;;
64061;SDS011;50308;47.438;-1.528;2022-08-19T10:20:12;7.53;;;4.55;;
64061;SDS011;50308;47.438;-1.528;2022-08-19T10:22:38;7.20;;;4.00;;
64061;SDS011;50308;47.438;-1.528;2022-08-19T10:25:04;6.68;;;4.78;;
64061;SDS011;50308;47.438;-1.528;2022-08-19T10:27:31;5.15;;;3.88;;
64061;SDS011;50308;47.438;-1.528;2022-08-19T10:29:57;7.10;;;4.13;;
64061;SDS011;50308;47.438;-1.528;2022-08-19T10:32:22;7.13;;;3.80;;
64061;SDS011;50308;47.438;-1.528;2022-08-19T10:34:50;5.40;;;3.95;;
64061;SDS011;50308;47.438;-1.528;2022-08-19T10:37:17;9.02;;;4.80;;
64061;SDS011;50308;47.438;-1.528;2022-08-19T10:39:45;7.10;;;4.43;;
64061;SDS011;50308;47.438;-1.528;2022-08-19T10:42:14;9.15;;;4.88;;
64061;SDS011;50308;47.438;-1.528;2022-08-19T10:44:42;8.55;;;5.00;;
64061;SDS011;50308;47.438;-1.528;2022-08-19T10:47:12;8.13;;;4.80;;
64061;SDS011;50308;47.438;-1.528;2022-08-19T10:49:38;7.00;;;4.60;;
64061;SDS011;50308;47.438;-1.528;2022-08-19T10:52:25;7.05;;;4.40;;
64061;SDS011;50308;47.438;-1.528;2022-08-19T10:55:05;5.55;;;4.10;;
64061;SDS011;50308;47.438;-1.528;2022-08-19T10:57:53;5.32;;;4.03;;
64061;SDS011;50308;47.438;-1.528;2022-08-19T11:00:20;4.45;;;3.75;;
64061;SDS011;50308;47.438;-1.528;2022-08-19T11:02:48;10.02;;;4.22;;
64061;SDS011;50308;47.438;-1.528;2022-08-19T11:05:15;6.78;;;3.30;;
64061;SDS011;50308;47.438;-1.528;2022-08-19T11:07:42;5.50;;;3.58;;
64061;SDS011;50308;47.438;-1.528;2022-08-19T11:10:11;5.90;;;3.10;;
64061;SDS011;50308;47.438;-1.528;2022-08-19T11:12:41;5.95;;;3.10;;
64061;SDS011;50308;47.438;-1.528;2022-08-19T11:15:08;7.05;;;2.97;;
64061;SDS011;50308;47.438;-1.528;2022-08-19T11:17:39;5.13;;;2.47;;
64061;SDS011;50308;47.438;-1.528;2022-08-19T11:20:10;6.20;;;2.78;;
64061;SDS011;50308;47.438;-1.528;2022-08-19T11:22:39;5.88;;;2.63;;
64061;SDS011;50308;47.438;-1.528;2022-08-19T11:25:06;5.50;;;2.95;;
64061;SDS011;50308;47.438;-1.528;2022-08-19T11:27:39;3.90;;;2.60;;
64061;SDS011;50308;47.438;-1.528;2022-08-19T11:30:10;4.45;;;2.80;;
64061;SDS011;50308;47.438;-1.528;2022-08-19T11:32:41;4.15;;;2.65;;
64061;SDS011;50308;47.438;-1.528;2022-08-19T11:35:11;3.55;;;2.50;;
64061;SDS011;50308;47.438;-1.528;2022-08-19T11:37:38;4.97;;;2.42;;
64061;SDS011;50308;47.438;-1.528;2022-08-19T11:40:06;5.20;;;2.15;;
64061;SDS011;50308;47.438;-1.528;2022-08-19T11:42:33;4.05;;;1.83;;
64061;SDS011;50308;47.438;-1.528;2022-08-19T11:45:19;4.53;;;2.25;;
64061;SDS011;50308;47.438;-1.528;2022-08-19T11:47:46;5.53;;;1.70;;
64061;SDS011;50308;47.438;-1.528;2022-08-19T11:50:15;4.53;;;1.50;;
64061;SDS011;50308;47.438;-1.528;2022-08-19T11:52:45;3.22;;;1.23;;
64061;SDS011;50308;47.438;-1.528;2022-08-19T11:55:13;4.32;;;1.60;;
64061;SDS011;50308;47.438;-1.528;2022-08-19T12:00:11;2.33;;;1.10;;
64061;SDS011;50308;47.438;-1.528;2022-08-19T12:02:41;2.50;;;1.25;;
64061;SDS011;50308;47.438;-1.528;2022-08-19T12:05:09;3.35;;;1.17;;
64061;SDS011;50308;47.438;-1.528;2022-08-19T12:07:37;3.63;;;1.15;;
64061;SDS011;50308;47.438;-1.528;2022-08-19T12:10:09;3.63;;;1.80;;
64061;SDS011;50308;47.438;-1.528;2022-08-19T12:12:37;3.35;;;1.30;;
64061;SDS011;50308;47.438;-1.528;2022-08-19T12:15:08;4.18;;;1.42;;
64061;SDS011;50308;47.438;-1.528;2022-08-19T12:17:36;4.43;;;1.77;;
64061;SDS011;50308;47.438;-1.528;2022-08-19T12:20:04;4.13;;;1.45;;
64061;SDS011;50308;47.438;-1.528;2022-08-19T12:22:31;4.50;;;1.58;;
64061;SDS011;50308;47.438;-1.528;2022-08-19T12:24:57;4.13;;;1.42;;
64061;SDS011;50308;47.438;-1.528;2022-08-19T12:27:26;6.22;;;1.90;;
64061;SDS011;50308;47.438;-1.528;2022-08-19T12:29:56;2.53;;;1.00;;
64061;SDS011;50308;47.438;-1.528;2022-08-19T12:32:22;4.13;;;1.30;;
64061;SDS011;50308;47.438;-1.528;2022-08-19T12:34:52;3.13;;;1.30;;
64061;SDS011;50308;47.438;-1.528;2022-08-19T12:37:19;6.22;;;1.30;;
64061;SDS011;50308;47.438;-1.528;2022-08-19T12:39:47;2.55;;;1.00;;
64061;SDS011;50308;47.438;-1.528;2022-08-19T12:42:14;3.15;;;0.90;;
64061;SDS011;50308;47.438;-1.528;2022-08-19T12:44:41;2.10;;;1.00;;
64061;SDS011;50308;47.438;-1.528;2022-08-19T12:47:10;4.75;;;1.80;;
64061;SDS011;50308;47.438;-1.528;2022-08-19T12:49:39;3.73;;;1.40;;
64061;SDS011;50308;47.438;-1.528;2022-08-19T12:52:07;3.80;;;1.25;;
64061;SDS011;50308;47.438;-1.528;2022-08-19T12:54:38;4.82;;;1.50;;
64061;SDS011;50308;47.438;-1.528;2022-08-19T12:57:08;3.10;;;1.42;;
64061;SDS011;50308;47.438;-1.528;2022-08-19T12:59:37;5.38;;;2.00;;
64061;SDS011;50308;47.438;-1.528;2022-08-19T13:02:05;3.05;;;1.25;;
64061;SDS011;50308;47.438;-1.528;2022-08-19T13:04:33;3.97;;;1.70;;
64061;SDS011;50308;47.438;-1.528;2022-08-19T13:07:02;3.97;;;1.88;;
64061;SDS011;50308;47.438;-1.528;2022-08-19T13:09:29;4.43;;;2.00;;
64061;SDS011;50308;47.438;-1.528;2022-08-19T13:11:56;4.82;;;3.10;;
64061;SDS011;50308;47.438;-1.528;2022-08-19T13:14:24;4.32;;;1.90;;
64061;SDS011;50308;47.438;-1.528;2022-08-19T13:16:50;2.83;;;2.30;;
64061;SDS011;50308;47.438;-1.528;2022-08-19T13:19:18;4.00;;;2.42;;
64061;SDS011;50308;47.438;-1.528;2022-08-19T13:21:49;6.85;;;2.35;;
64061;SDS011;50308;47.438;-1.528;2022-08-19T13:24:17;4.63;;;2.15;;
64061;SDS011;50308;47.438;-1.528;2022-08-19T13:26:44;5.65;;;2.45;;
64061;SDS011;50308;47.438;-1.528;2022-08-19T13:29:11;5.50;;;2.22;;
64061;SDS011;50308;47.438;-1.528;2022-08-19T13:31:55;4.45;;;2.25;;
64061;SDS011;50308;47.438;-1.528;2022-08-19T13:34:40;4.90;;;1.83;;
64061;SDS011;50308;47.438;-1.528;2022-08-19T13:37:05;3.65;;;1.52;;
64061;SDS011;50308;47.438;-1.528;2022-08-19T13:39:32;3.47;;;1.52;;
64061;SDS011;50308;47.438;-1.528;2022-08-19T13:41:58;6.53;;;1.65;;
64061;SDS011;50308;47.438;-1.528;2022-08-19T13:44:26;2.72;;;1.60;;
64061;SDS011;50308;47.438;-1.528;2022-08-19T13:46:54;4.55;;;1.58;;
64061;SDS011;50308;47.438;-1.528;2022-08-19T13:49:27;3.83;;;1.70;;
64061;SDS011;50308;47.438;-1.528;2022-08-19T13:51:55;4.10;;;1.85;;
64061;SDS011;50308;47.438;-1.528;2022-08-19T13:54:20;4.55;;;1.70;;
64061;SDS011;50308;47.438;-1.528;2022-08-19T13:56:46;4.68;;;1.48;;
64061;SDS011;50308;47.438;-1.528;2022-08-19T13:59:12;7.28;;;2.03;;
64061;SDS011;50308;47.438;-1.528;2022-08-19T14:01:38;5.55;;;1.77;;
64061;SDS011;50308;47.438;-1.528;2022-08-19T14:04:04;9.35;;;2.03;;
64061;SDS011;50308;47.438;-1.528;2022-08-19T14:06:31;4.30;;;2.15;;
64061;SDS011;50308;47.438;-1.528;2022-08-19T14:08:56;5.35;;;2.30;;
64061;SDS011;50308;47.438;-1.528;2022-08-19T14:11:22;3.67;;;1.95;;
64061;SDS011;50308;47.438;-1.528;2022-08-19T14:13:48;3.47;;;1.42;;
64061;SDS011;50308;47.438;-1.528;2022-08-19T14:16:15;7.28;;;2.15;;
64061;SDS011;50308;47.438;-1.528;2022-08-19T14:18:40;6.18;;;2.22;;
64061;SDS011;50308;47.438;-1.528;2022-08-19T14:21:07;5.07;;;2.25;;
64061;SDS011;50308;47.438;-1.528;2022-08-19T14:23:38;6.95;;;2.72;;
64061;SDS011;50308;47.438;-1.528;2022-08-19T14:26:13;7.82;;;2.63;;
64061;SDS011;50308;47.438;-1.528;2022-08-19T14:28:41;7.70;;;3.00;;
64061;SDS011;50308;47.438;-1.528;2022-08-19T14:31:08;7.68;;;3.13;;
64061;SDS011;50308;47.438;-1.528;2022-08-19T14:33:38;6.65;;;2.53;;
64061;SDS011;50308;47.438;-1.528;2022-08-19T14:36:05;8.55;;;2.60;;
64061;SDS011;50308;47.438;-1.528;2022-08-19T14:38:31;8.98;;;3.30;;
64061;SDS011;50308;47.438;-1.528;2022-08-19T14:43:35;6.22;;;2.22;;
64061;SDS011;50308;47.438;-1.528;2022-08-19T14:46:01;3.53;;;1.58;;
64061;SDS011;50308;47.438;-1.528;2022-08-19T14:48:26;4.25;;;1.73;;
64061;SDS011;50308;47.438;-1.528;2022-08-19T14:50:52;3.15;;;1.50;;
64061;SDS011;50308;47.438;-1.528;2022-08-19T14:53:18;4.65;;;1.92;;
64061;SDS011;50308;47.438;-1.528;2022-08-19T14:55:44;3.78;;;1.70;;
64061;SDS011;50308;47.438;-1.528;2022-08-19T14:58:11;3.83;;;1.30;;
64061;SDS011;50308;47.438;-1.528;2022-08-19T15:00:38;4.43;;;1.45;;
64061;SDS011;50308;47.438;-1.528;2022-08-19T15:03:03;3.35;;;1.55;;
64061;SDS011;50308;47.438;-1.528;2022-08-19T15:05:29;4.22;;;1.42;;
64061;SDS011;50308;47.438;-1.528;2022-08-19T15:07:55;3.95;;;1.60;;
64061;SDS011;50308;47.438;-1.528;2022-08-19T15:10:21;2.83;;;1.35;;
64061;SDS011;50308;47.438;-1.528;2022-08-19T15:12:49;4.50;;;1.50;;